Time;durP1;ratioP1;P1;durP2;ratioP2;P2;SDS_P1;SDS_P2;PMS_P1;PMS_P2;Temp;Humidity;BMP_temperature;BMP_pressure;BME280_temperature;BME280_humidity;BME280_pressure;Samples;Min_cycle;Max_cycle;Signal;HPM_P1;HPM_P2
2022/07/08 00:01:33;;;;;;;23.35;4.20;;;13.00;99.90;;;;;;5035441;28;20032;-68
2022/07/08 00:03:59;;;;;;;26.27;3.47;;;13.00;99.90;;;;;;5035337;28;20109;-68
2022/07/08 00:06:24;;;;;;;37.10;5.55;;;12.90;99.90;;;;;;5035592;28;20053;-68
2022/07/08 00:08:50;;;;;;;34.65;3.95;;;12.90;99.90;;;;;;5035214;28;20021;-68
2022/07/08 00:11:16;;;;;;;34.75;3.88;;;12.90;99.90;;;;;;5034730;28;20034;-68
2022/07/08 00:13:41;;;;;;;31.45;5.60;;;12.80;99.90;;;;;;5035106;28;20029;-68
2022/07/08 00:16:07;;;;;;;30.20;5.13;;;12.80;99.90;;;;;;5035372;28;20358;-68
2022/07/08 00:18:32;;;;;;;28.90;4.07;;;12.80;99.90;;;;;;5035005;28;20104;-68
2022/07/08 00:20:58;;;;;;;27.75;4.43;;;12.80;99.90;;;;;;5035353;28;20461;-68
2022/07/08 00:23:23;;;;;;;25.52;4.68;;;12.80;99.90;;;;;;5034916;28;20033;-68
2022/07/08 00:25:49;;;;;;;24.92;4.03;;;12.80;99.90;;;;;;5035204;28;20017;-68
2022/07/08 00:28:15;;;;;;;19.35;4.00;;;12.90;99.90;;;;;;5034775;28;20036;-68
2022/07/08 00:30:40;;;;;;;25.77;4.35;;;12.90;99.90;;;;;;5034594;28;20033;-68
2022/07/08 00:33:06;;;;;;;24.52;4.82;;;12.90;99.90;;;;;;5034282;28;20390;-68
2022/07/08 00:35:32;;;;;;;27.65;3.63;;;13.00;99.90;;;;;;5035039;28;20026;-68
2022/07/08 00:37:57;;;;;;;26.10;4.10;;;13.10;99.90;;;;;;5034827;28;20033;-68
2022/07/08 00:40:23;;;;;;;24.50;4.18;;;13.10;99.90;;;;;;5035219;28;20032;-68
2022/07/08 00:42:48;;;;;;;28.88;4.00;;;13.20;99.90;;;;;;5034403;28;20112;-68
2022/07/08 00:45:17;;;;;;;21.67;3.88;;;13.20;99.90;;;;;;5034578;28;20014;-68
2022/07/08 00:47:43;;;;;;;27.83;3.90;;;13.20;99.90;;;;;;5034786;28;20025;-68
2022/07/08 00:50:10;;;;;;;19.55;3.63;;;13.20;99.90;;;;;;5054594;28;20100;-68
2022/07/08 00:52:38;;;;;;;28.52;4.07;;;13.20;99.90;;;;;;5054336;28;20452;-68
2022/07/08 00:55:05;;;;;;;22.88;3.65;;;13.20;99.90;;;;;;5054262;28;20079;-68
2022/07/08 00:57:32;;;;;;;27.40;3.97;;;13.10;99.90;;;;;;5035274;28;20056;-68
2022/07/08 00:59:58;;;;;;;28.23;4.20;;;13.00;99.90;;;;;;5049689;23;20045;-68
2022/07/08 01:02:24;;;;;;;16.10;2.90;;;13.00;99.90;;;;;;5034424;28;20047;-68
2022/07/08 01:04:50;;;;;;;15.00;3.03;;;12.90;99.90;;;;;;5034209;28;20457;-67
2022/07/08 01:07:16;;;;;;;23.23;3.22;;;12.80;99.90;;;;;;5034378;28;20441;-68
2022/07/08 01:09:41;;;;;;;22.02;5.00;;;12.80;99.90;;;;;;5034681;28;20115;-67
2022/07/08 01:12:08;;;;;;;28.85;3.83;;;12.90;99.90;;;;;;5034154;28;20029;-67
2022/07/08 01:14:33;;;;;;;26.40;4.10;;;12.80;99.90;;;;;;5034584;28;20479;-68
2022/07/08 01:16:59;;;;;;;24.40;3.75;;;12.80;99.90;;;;;;5034067;28;20031;-67
2022/07/08 01:19:25;;;;;;;20.00;3.47;;;12.80;99.90;;;;;;5034067;28;20428;-68
2022/07/08 01:21:50;;;;;;;32.22;3.65;;;12.70;99.90;;;;;;5034445;28;20036;-67
2022/07/08 01:24:17;;;;;;;34.30;4.28;;;12.70;99.90;;;;;;5034060;28;20457;-68
2022/07/08 01:26:43;;;;;;;22.40;4.22;;;12.70;99.90;;;;;;5034105;28;20026;-67
2022/07/08 01:29:08;;;;;;;31.05;5.10;;;12.60;99.90;;;;;;5033858;28;20075;-67
2022/07/08 01:31:34;;;;;;;24.90;3.90;;;12.60;99.90;;;;;;5033859;28;20082;-67
2022/07/08 01:33:59;;;;;;;19.73;3.88;;;12.50;99.90;;;;;;5034176;28;20112;-67
2022/07/08 01:36:25;;;;;;;15.75;3.60;;;12.40;99.90;;;;;;5033938;28;20021;-68
2022/07/08 01:38:51;;;;;;;26.10;4.47;;;12.30;99.90;;;;;;5033744;28;20029;-67
2022/07/08 01:41:16;;;;;;;34.15;4.85;;;12.30;99.90;;;;;;5033462;28;20013;-68
2022/07/08 01:43:42;;;;;;;31.33;4.45;;;12.30;99.90;;;;;;5032652;28;20017;-67
2022/07/08 01:46:08;;;;;;;32.63;3.78;;;12.20;99.90;;;;;;5033953;28;20155;-67
2022/07/08 01:48:33;;;;;;;35.10;4.00;;;12.20;99.90;;;;;;5033937;28;20025;-68
2022/07/08 01:50:59;;;;;;;20.15;3.97;;;12.10;99.90;;;;;;5033390;28;20041;-66
2022/07/08 01:53:25;;;;;;;40.97;5.88;;;12.20;99.90;;;;;;5033904;28;20025;-66
2022/07/08 01:55:50;;;;;;;25.50;4.03;;;12.10;99.90;;;;;;5033868;28;20025;-67
2022/07/08 01:58:16;;;;;;;32.25;3.78;;;12.10;99.90;;;;;;5033241;28;20370;-66
2022/07/08 02:00:41;;;;;;;25.92;5.03;;;12.10;99.90;;;;;;5033425;28;20037;-67
2022/07/08 02:03:07;;;;;;;28.30;4.47;;;12.10;99.90;;;;;;5033513;28;20035;-68
2022/07/08 02:05:34;;;;;;;24.90;5.13;;;12.10;99.90;;;;;;5033672;28;20057;-67
2022/07/08 02:08:01;;;;;;;24.33;4.05;;;12.00;99.90;;;;;;5033516;28;20048;-68
2022/07/08 02:10:27;;;;;;;30.67;4.25;;;11.90;99.90;;;;;;5033215;28;20017;-68
2022/07/08 02:12:53;;;;;;;26.02;3.63;;;12.00;99.90;;;;;;5033743;28;20366;-68
2022/07/08 02:15:18;;;;;;;22.50;4.50;;;12.10;99.90;;;;;;5033629;28;20029;-67
2022/07/08 02:17:44;;;;;;;32.20;3.92;;;11.90;99.90;;;;;;5033561;28;20388;-67
2022/07/08 02:20:11;;;;;;;28.00;4.30;;;11.90;99.90;;;;;;5033536;28;20477;-68
2022/07/08 02:22:38;;;;;;;25.73;3.38;;;11.80;99.90;;;;;;5033245;28;20021;-67
2022/07/08 02:25:04;;;;;;;34.53;3.75;;;11.80;99.90;;;;;;5033539;28;20033;-68
2022/07/08 02:27:31;;;;;;;20.10;3.50;;;11.80;99.90;;;;;;5032368;28;20160;-67
2022/07/08 02:29:56;;;;;;;25.15;4.53;;;11.90;99.90;;;;;;5033333;28;20022;-68
2022/07/08 02:32:22;;;;;;;29.05;4.68;;;11.90;99.90;;;;;;5033207;28;20029;-67
2022/07/08 02:34:47;;;;;;;22.35;3.35;;;11.80;99.90;;;;;;5033228;28;20021;-67
2022/07/08 02:37:13;;;;;;;15.82;2.70;;;11.80;99.90;;;;;;5027684;28;20036;-67
2022/07/08 02:39:39;;;;;;;24.10;3.58;;;11.70;99.90;;;;;;5029378;28;20022;-68
2022/07/08 02:42:05;;;;;;;22.60;4.13;;;11.70;99.90;;;;;;5032682;28;20029;-67
2022/07/08 02:44:31;;;;;;;30.60;4.45;;;11.70;99.90;;;;;;5033258;28;20021;-67
2022/07/08 02:46:57;;;;;;;25.60;3.53;;;11.70;99.90;;;;;;5033043;28;20026;-68
2022/07/08 02:49:22;;;;;;;21.17;3.63;;;11.60;99.90;;;;;;5032980;28;20025;-68
2022/07/08 02:51:48;;;;;;;24.48;4.03;;;11.60;99.90;;;;;;5033702;28;20112;-68
2022/07/08 02:54:13;;;;;;;28.33;3.72;;;11.60;99.90;;;;;;5033025;28;20030;-67
2022/07/08 02:56:39;;;;;;;19.75;3.47;;;11.60;99.90;;;;;;5036268;28;20022;-68
2022/07/08 02:59:05;;;;;;;24.50;3.67;;;11.60;99.90;;;;;;5036616;28;20055;-67
2022/07/08 03:01:31;;;;;;;27.05;3.45;;;11.60;99.90;;;;;;5036581;28;20022;-67
2022/07/08 03:03:56;;;;;;;27.83;3.83;;;11.70;99.90;;;;;;5036626;28;20025;-68
2022/07/08 03:06:22;;;;;;;28.50;4.50;;;11.70;99.90;;;;;;5036541;28;20033;-68
2022/07/08 03:08:48;;;;;;;25.40;4.22;;;11.70;99.90;;;;;;5036507;28;20053;-67
2022/07/08 03:11:13;;;;;;;22.77;2.78;;;11.80;99.90;;;;;;5036474;28;20473;-67
2022/07/08 03:13:39;;;;;;;24.45;4.25;;;11.80;99.90;;;;;;5036364;28;20099;-67
2022/07/08 03:16:06;;;;;;;31.30;4.03;;;11.80;99.90;;;;;;5036362;28;20026;-67
2022/07/08 03:18:32;;;;;;;23.08;3.33;;;11.80;99.90;;;;;;5036237;28;20029;-67
2022/07/08 03:20:58;;;;;;;30.00;4.15;;;11.90;99.90;;;;;;5036383;28;20025;-67
2022/07/08 03:23:24;;;;;;;24.13;3.55;;;11.80;99.90;;;;;;5036308;28;20048;-67
2022/07/08 03:25:49;;;;;;;29.02;5.18;;;11.80;99.90;;;;;;5036424;28;20030;-68
2022/07/08 03:28:15;;;;;;;19.17;3.97;;;11.80;99.90;;;;;;5036424;28;20033;-68
2022/07/08 03:30:41;;;;;;;24.50;4.20;;;11.80;99.90;;;;;;5036770;28;20029;-68
2022/07/08 03:33:06;;;;;;;27.20;4.40;;;11.80;99.90;;;;;;5036127;28;20428;-68
2022/07/08 03:35:32;;;;;;;35.20;4.72;;;11.80;99.90;;;;;;5036587;28;20033;-68
2022/07/08 03:37:58;;;;;;;22.92;4.03;;;11.90;99.90;;;;;;5036215;28;20026;-67
2022/07/08 03:43:07;;;;;;;34.85;4.55;;;12.10;99.90;;;;;;5036173;28;20031;-67
2022/07/08 03:45:33;;;;;;;24.55;4.70;;;12.10;99.90;;;;;;5035937;28;20479;-67
2022/07/08 03:48:00;;;;;;;27.48;4.20;;;12.20;99.90;;;;;;5035858;28;20030;-67
2022/07/08 03:50:26;;;;;;;18.00;3.13;;;12.30;99.90;;;;;;5035522;28;20113;-68
2022/07/08 03:52:52;;;;;;;24.83;4.40;;;12.30;99.90;;;;;;5035780;28;20022;-68
2022/07/08 03:55:21;;;;;;;24.80;3.63;;;12.40;99.90;;;;;;5035985;28;20064;-67
2022/07/08 03:57:47;;;;;;;28.95;4.47;;;12.40;99.90;;;;;;5017763;28;20025;-68
2022/07/08 04:00:13;;;;;;;18.48;3.08;;;12.40;99.90;;;;;;5035757;28;20103;-67
2022/07/08 04:02:39;;;;;;;40.70;4.00;;;12.50;99.90;;;;;;5035582;28;20022;-67
2022/07/08 04:05:05;;;;;;;31.77;4.22;;;12.50;99.90;;;;;;5035041;28;20453;-67
2022/07/08 04:07:32;;;;;;;25.25;6.15;;;12.50;99.90;;;;;;5034512;28;20034;-68
2022/07/08 04:09:58;;;;;;;26.65;5.10;;;12.60;99.90;;;;;;5035442;28;20036;-67
2022/07/08 04:12:23;;;;;;;27.23;4.03;;;12.60;99.90;;;;;;5017580;28;20026;-67
2022/07/08 04:14:49;;;;;;;26.90;4.85;;;12.60;99.90;;;;;;5035352;28;20080;-67
2022/07/08 04:17:14;;;;;;;30.70;4.38;;;12.60;99.90;;;;;;5035404;28;20044;-67
2022/07/08 04:19:40;;;;;;;45.92;5.93;;;12.90;99.90;;;;;;5035511;28;20030;-68
2022/07/08 04:22:05;;;;;;;36.08;4.63;;;13.10;99.90;;;;;;5035185;28;20100;-68
2022/07/08 04:24:31;;;;;;;28.48;4.78;;;13.20;99.90;;;;;;5035174;28;20029;-68
2022/07/08 04:26:57;;;;;;;26.08;3.53;;;13.30;99.90;;;;;;5035050;28;20029;-67
2022/07/08 04:29:22;;;;;;;31.15;4.57;;;13.30;99.90;;;;;;5034972;28;20030;-67
2022/07/08 04:31:48;;;;;;;41.90;4.28;;;13.30;99.90;;;;;;5035179;28;20033;-68
2022/07/08 04:34:13;;;;;;;18.50;2.90;;;13.30;99.90;;;;;;5034961;28;20112;-68
2022/07/08 04:36:39;;;;;;;20.77;4.68;;;13.40;99.90;;;;;;5034866;28;20102;-67
2022/07/08 04:39:04;;;;;;;22.90;3.97;;;13.50;99.90;;;;;;5035094;28;20025;-68
2022/07/08 04:41:30;;;;;;;22.25;4.00;;;13.50;99.90;;;;;;5034796;28;20025;-68
2022/07/08 04:43:56;;;;;;;26.45;4.60;;;13.60;99.90;;;;;;5034968;28;20163;-68
2022/07/08 04:46:21;;;;;;;21.13;3.67;;;13.70;99.90;;;;;;5034701;28;20034;-68
2022/07/08 04:48:47;;;;;;;29.70;4.70;;;13.80;99.90;;;;;;5034481;28;20029;-67
2022/07/08 04:51:12;;;;;;;39.75;5.30;;;13.80;99.90;;;;;;5034575;28;20037;-67
2022/07/08 04:53:38;;;;;;;30.63;4.53;;;13.80;99.90;;;;;;5034588;28;20021;-68
2022/07/08 04:56:04;;;;;;;23.33;5.15;;;14.00;99.90;;;;;;5034536;28;20025;-68
2022/07/08 04:58:30;;;;;;;25.60;4.43;;;14.00;99.90;;;;;;5034397;28;20049;-68
2022/07/08 05:00:56;;;;;;;28.13;5.03;;;14.10;99.90;;;;;;5034376;28;20033;-68
2022/07/08 05:03:21;;;;;;;32.85;4.50;;;14.10;99.90;;;;;;5034408;28;20128;-68
2022/07/08 05:05:47;;;;;;;27.63;3.42;;;14.10;99.90;;;;;;5034294;28;20490;-68
2022/07/08 05:08:13;;;;;;;27.30;5.47;;;14.10;99.90;;;;;;5034314;28;20021;-67
2022/07/08 05:10:39;;;;;;;22.85;3.85;;;14.20;99.90;;;;;;5034495;28;20017;-67
2022/07/08 05:13:07;;;;;;;32.17;3.83;;;14.30;99.90;;;;;;5034110;28;20032;-68
2022/07/08 05:15:32;;;;;;;19.95;3.97;;;14.30;99.90;;;;;;5034213;28;20057;-68
2022/07/08 05:17:58;;;;;;;23.85;4.85;;;14.40;99.90;;;;;;5033869;28;20049;-68
2022/07/08 05:20:24;;;;;;;23.92;4.50;;;14.40;99.90;;;;;;5033955;28;20543;-68
2022/07/08 05:22:49;;;;;;;26.08;4.68;;;14.40;99.90;;;;;;5034313;28;20492;-68
2022/07/08 05:25:15;;;;;;;15.07;4.18;;;14.50;99.90;;;;;;5034236;28;20029;-68
2022/07/08 05:27:41;;;;;;;23.02;3.97;;;14.50;99.90;;;;;;5033497;28;20079;-68
2022/07/08 05:30:09;;;;;;;18.08;4.25;;;14.50;99.90;;;;;;5033997;28;20100;-68
2022/07/08 05:32:35;;;;;;;36.85;5.90;;;14.60;99.90;;;;;;5033886;28;20025;-68
2022/07/08 05:35:05;;;;;;;29.27;4.47;;;14.60;99.90;;;;;;5034102;28;20030;-68
2022/07/08 05:37:31;;;;;;;34.80;3.90;;;14.60;99.90;;;;;;5033731;28;20034;-67
2022/07/08 05:39:57;;;;;;;31.92;4.75;;;14.60;99.90;;;;;;5033898;28;20476;-67
2022/07/08 05:42:23;;;;;;;27.13;4.65;;;14.60;99.90;;;;;;5033792;28;20049;-67
2022/07/08 05:44:49;;;;;;;25.25;4.70;;;14.70;99.90;;;;;;5015971;28;20056;-68
2022/07/08 05:47:15;;;;;;;22.58;5.50;;;14.70;99.90;;;;;;5033684;28;20370;-68
2022/07/08 05:49:43;;;;;;;19.98;3.55;;;14.60;99.90;;;;;;5033469;28;20521;-68
2022/07/08 05:52:10;;;;;;;25.00;4.43;;;14.70;99.90;;;;;;5033633;28;20022;-68
2022/07/08 05:54:36;;;;;;;37.13;4.63;;;14.70;99.90;;;;;;5033753;28;20105;-67
2022/07/08 05:57:02;;;;;;;24.33;4.85;;;14.70;99.90;;;;;;5033531;28;20108;-68
2022/07/08 05:59:28;;;;;;;26.65;4.30;;;14.70;99.90;;;;;;5033458;28;20033;-68
2022/07/08 06:01:55;;;;;;;37.92;4.38;;;14.80;99.90;;;;;;5033447;28;20026;-67
2022/07/08 06:04:20;;;;;;;15.27;3.90;;;14.80;99.90;;;;;;5033555;28;20026;-67
2022/07/08 06:06:46;;;;;;;26.35;5.15;;;14.70;99.90;;;;;;5033546;28;20045;-67
2022/07/08 06:09:12;;;;;;;16.58;3.50;;;14.70;99.90;;;;;;5033252;28;20056;-67
2022/07/08 06:11:38;;;;;;;26.02;4.55;;;14.70;99.90;;;;;;5033463;28;20104;-68
2022/07/08 06:14:03;;;;;;;26.95;5.68;;;14.70;99.90;;;;;;5033675;28;20040;-68
2022/07/08 06:16:29;;;;;;;21.67;5.22;;;14.50;99.90;;;;;;5032875;28;20092;-67
2022/07/08 06:18:54;;;;;;;26.00;4.28;;;14.50;99.90;;;;;;5032837;28;20021;-67
2022/07/08 06:21:20;;;;;;;24.73;4.05;;;14.40;99.90;;;;;;5033350;28;20017;-67
2022/07/08 06:23:45;;;;;;;18.75;4.15;;;14.40;99.90;;;;;;5033552;28;20401;-67
2022/07/08 06:26:11;;;;;;;26.45;5.18;;;14.40;99.90;;;;;;5033568;28;20096;-67
2022/07/08 06:28:37;;;;;;;24.25;4.90;;;14.30;99.90;;;;;;5033142;28;20028;-67
2022/07/08 06:31:03;;;;;;;22.35;4.90;;;14.30;99.90;;;;;;5035695;28;20033;-67
2022/07/08 06:33:28;;;;;;;24.73;4.75;;;14.30;99.90;;;;;;5036758;28;20109;-67
2022/07/08 06:35:54;;;;;;;19.33;5.40;;;14.30;99.90;;;;;;5036917;28;20057;-67
2022/07/08 06:38:19;;;;;;;26.45;5.00;;;14.40;99.90;;;;;;5036950;28;20116;-67
2022/07/08 06:40:45;;;;;;;22.77;4.82;;;14.50;99.90;;;;;;5037223;28;20013;-67
2022/07/08 06:43:11;;;;;;;20.20;5.10;;;14.60;99.90;;;;;;5037302;28;20025;-67
2022/07/08 06:45:36;;;;;;;18.52;4.80;;;14.50;99.90;;;;;;5019303;28;20025;-67
2022/07/08 06:48:02;;;;;;;21.02;4.53;;;14.60;99.90;;;;;;5037305;28;20072;-67
2022/07/08 06:50:29;;;;;;;21.50;4.65;;;14.60;99.90;;;;;;5036817;28;20497;-67
2022/07/08 06:52:54;;;;;;;24.50;4.43;;;14.70;99.90;;;;;;5036790;28;20026;-67
2022/07/08 06:55:21;;;;;;;16.45;4.30;;;14.60;99.90;;;;;;5036890;28;20028;-67
2022/07/08 06:57:46;;;;;;;15.00;3.97;;;14.60;99.90;;;;;;5036783;28;20465;-67
2022/07/08 07:00:13;;;;;;;19.02;3.90;;;14.60;99.90;;;;;;5038286;28;20040;-66
2022/07/08 07:02:38;;;;;;;22.05;3.70;;;14.60;99.90;;;;;;5038365;28;20025;-66
2022/07/08 07:05:05;;;;;;;13.43;3.63;;;14.70;99.90;;;;;;5038656;28;20034;-66
2022/07/08 07:07:31;;;;;;;18.55;4.32;;;14.60;99.90;;;;;;5038172;28;20029;-66
2022/07/08 07:09:56;;;;;;;24.48;5.30;;;14.60;99.90;;;;;;5038123;28;20040;-66
2022/07/08 07:12:22;;;;;;;21.67;4.47;;;14.60;99.90;;;;;;5038218;28;20026;-66
2022/07/08 07:14:47;;;;;;;24.73;4.68;;;14.70;99.90;;;;;;5038002;28;20029;-66
2022/07/08 07:17:19;;;;;;;18.77;4.93;;;14.80;99.90;;;;;;5019954;28;20481;-66
2022/07/08 07:19:46;;;;;;;14.82;4.25;;;14.90;99.90;;;;;;5037790;28;20473;-66
2022/07/08 07:22:12;;;;;;;24.10;4.25;;;15.10;99.90;;;;;;5037487;28;20083;-66
2022/07/08 07:24:37;;;;;;;16.30;3.58;;;15.10;99.90;;;;;;5038072;28;20470;-66
2022/07/08 07:27:03;;;;;;;12.98;3.25;;;15.10;99.90;;;;;;5038010;28;20061;-66
2022/07/08 07:29:29;;;;;;;16.65;3.25;;;15.10;99.90;;;;;;5037800;28;20108;-66
2022/07/08 07:31:55;;;;;;;16.88;3.22;;;15.10;99.90;;;;;;5038190;28;20065;-67
2022/07/08 07:34:20;;;;;;;9.25;2.35;;;15.10;99.90;;;;;;5038022;28;20124;-66
2022/07/08 07:36:46;;;;;;;9.65;1.92;;;15.00;99.90;;;;;;5037720;28;20032;-66
2022/07/08 07:39:11;;;;;;;8.40;2.35;;;15.20;99.90;;;;;;5038095;28;20040;-66
2022/07/08 07:41:38;;;;;;;14.50;3.03;;;15.20;99.90;;;;;;5036218;28;20025;-66
2022/07/08 07:44:04;;;;;;;9.80;3.60;;;15.40;99.90;;;;;;5037238;28;20504;-67
2022/07/08 07:46:30;;;;;;;12.48;1.85;;;15.60;99.90;;;;;;5037309;28;20052;-67
2022/07/08 07:48:56;;;;;;;10.32;2.15;;;15.80;99.90;;;;;;5037677;28;20022;-67
2022/07/08 07:51:22;;;;;;;5.78;1.65;;;15.90;99.90;;;;;;5036894;28;20030;-67
2022/07/08 07:53:47;;;;;;;10.60;1.83;;;16.00;99.90;;;;;;5036852;28;20100;-67
2022/07/08 07:56:13;;;;;;;10.73;2.17;;;16.10;99.90;;;;;;5036855;28;20480;-67
2022/07/08 07:58:39;;;;;;;3.42;1.80;;;16.60;99.90;;;;;;5036861;28;20033;-67
2022/07/08 08:01:05;;;;;;;5.05;1.40;;;16.90;99.90;;;;;;5037758;28;20369;-67
2022/07/08 08:03:34;;;;;;;9.02;1.73;;;17.00;99.90;;;;;;5038429;28;20018;-67
2022/07/08 08:06:00;;;;;;;11.57;1.50;;;16.80;99.90;;;;;;5038662;28;20096;-67
2022/07/08 08:08:31;;;;;;;7.88;1.30;;;16.70;99.90;;;;;;5038006;28;20032;-67
2022/07/08 08:11:01;;;;;;;7.30;1.58;;;16.60;99.90;;;;;;5038595;28;20475;-67
2022/07/08 08:13:27;;;;;;;4.72;1.23;;;16.60;99.90;;;;;;5038207;28;20112;-67
2022/07/08 08:15:53;;;;;;;8.27;1.70;;;16.50;99.90;;;;;;5038850;28;20077;-67
2022/07/08 08:18:18;;;;;;;4.90;1.33;;;16.60;99.90;;;;;;5020424;28;20029;-67
2022/07/08 08:20:45;;;;;;;11.93;1.70;;;16.60;99.90;;;;;;5038940;28;20032;-67
2022/07/08 08:23:10;;;;;;;4.15;1.33;;;16.60;99.90;;;;;;5039548;28;20454;-67
2022/07/08 08:25:36;;;;;;;6.13;1.65;;;16.80;99.90;;;;;;5039197;28;20024;-67
2022/07/08 08:28:03;;;;;;;6.32;0.80;;;16.90;99.90;;;;;;5038640;28;20400;-67
2022/07/08 08:30:29;;;;;;;1.33;0.55;;;17.00;99.90;;;;;;5038907;28;20021;-67
2022/07/08 08:32:54;;;;;;;2.13;0.85;;;17.10;99.90;;;;;;5038638;28;20068;-67
2022/07/08 08:35:20;;;;;;;6.22;1.17;;;17.30;99.90;;;;;;5021159;28;20057;-67
2022/07/08 08:37:46;;;;;;;1.85;0.70;;;17.40;99.90;;;;;;5038556;28;20032;-67
2022/07/08 08:40:12;;;;;;;3.60;0.75;;;17.50;99.90;;;;;;5038160;28;20084;-67
2022/07/08 08:42:40;;;;;;;10.02;1.25;;;17.50;99.90;;;;;;5038202;28;20048;-67
2022/07/08 08:45:06;;;;;;;5.60;0.73;;;17.40;99.90;;;;;;5020122;28;20025;-67
2022/07/08 08:47:33;;;;;;;8.23;1.15;;;17.50;99.90;;;;;;5016407;28;20029;-67
2022/07/08 08:52:50;;;;;;;1.42;0.50;;;17.30;99.90;;;;;;5035753;28;20036;-67
2022/07/08 08:55:21;;;;;;;2.47;0.80;;;17.30;99.90;;;;;;5035400;28;20025;-67
2022/07/08 08:57:46;;;;;;;5.70;1.02;;;17.40;99.90;;;;;;5035078;28;20539;-67
2022/07/08 09:00:12;;;;;;;5.10;1.25;;;17.70;99.90;;;;;;5034982;28;20033;-67
2022/07/08 09:02:39;;;;;;;3.20;0.75;;;17.80;99.90;;;;;;5035697;28;20028;-67
2022/07/08 09:05:06;;;;;;;8.00;1.33;;;18.00;99.90;;;;;;5035095;28;20018;-67
2022/07/08 09:07:32;;;;;;;4.22;1.00;;;18.20;99.90;;;;;;5035810;28;20530;-67
2022/07/08 09:09:57;;;;;;;2.50;0.77;;;18.50;99.90;;;;;;5034759;28;20033;-67
2022/07/08 09:12:25;;;;;;;4.10;0.95;;;18.50;99.90;;;;;;5034180;28;20485;-68
2022/07/08 09:14:51;;;;;;;3.15;1.35;;;18.30;99.90;;;;;;5034179;28;20076;-68
2022/07/08 09:17:17;;;;;;;5.35;1.02;;;18.00;99.90;;;;;;5034207;28;20477;-67
2022/07/08 09:19:47;;;;;;;18.60;8.90;;;18.10;99.90;;;;;;5034095;28;20033;-68
2022/07/08 09:22:13;;;;;;;9.95;5.50;;;18.30;99.90;;;;;;5034485;28;20021;-68
2022/07/08 09:24:39;;;;;;;4.28;1.17;;;18.60;99.90;;;;;;5034067;28;20036;-68
2022/07/08 09:27:06;;;;;;;5.60;1.50;;;19.00;99.90;;;;;;5034031;28;20048;-68
2022/07/08 09:29:32;;;;;;;3.28;0.77;;;19.30;99.90;;;;;;5034188;28;20034;-68
2022/07/08 09:32:11;;;;;;;3.10;0.85;;;19.30;99.90;;;;;;5033869;28;20032;-68
2022/07/08 09:34:37;;;;;;;6.20;1.77;;;19.40;99.90;;;;;;5034423;28;20428;-68
2022/07/08 09:37:11;;;;;;;3.78;1.00;;;19.50;99.90;;;;;;5033742;28;20029;-67
2022/07/08 09:39:36;;;;;;;8.05;0.90;;;19.80;99.90;;;;;;5033866;28;20025;-67
2022/07/08 09:42:04;;;;;;;8.68;1.77;;;20.10;99.90;;;;;;5033778;28;20072;-68
2022/07/08 09:44:30;;;;;;;3.53;1.45;;;20.40;99.90;;;;;;5033661;28;20029;-68
2022/07/08 09:46:56;;;;;;;6.45;1.30;;;20.50;99.90;;;;;;5033692;28;20021;-67
2022/07/08 09:49:29;;;;;;;5.78;1.23;;;20.40;99.90;;;;;;5033480;28;20026;-67
2022/07/08 09:51:59;;;;;;;7.30;1.40;;;20.30;99.90;;;;;;5033671;28;20021;-68
2022/07/08 09:54:27;;;;;;;5.75;1.50;;;20.20;99.90;;;;;;5033404;28;20421;-68
2022/07/08 09:57:03;;;;;;;6.07;1.30;;;20.10;99.90;;;;;;5033621;28;20022;-68
2022/07/08 09:59:33;;;;;;;7.38;1.67;;;20.30;99.90;;;;;;5033743;28;20389;-68
2022/07/08 10:01:59;;;;;;;11.65;1.63;;;20.30;99.90;;;;;;5033890;28;20018;-69
2022/07/08 10:04:26;;;;;;;10.75;1.77;;;20.00;99.90;;;;;;5033064;28;20025;-68
2022/07/08 10:06:53;;;;;;;5.38;1.60;;;20.00;99.90;;;;;;5033401;28;20474;-68
2022/07/08 10:09:20;;;;;;;3.78;1.00;;;20.30;99.90;;;;;;5033442;28;20017;-68
2022/07/08 10:11:47;;;;;;;6.25;1.77;;;20.20;99.90;;;;;;5033374;28;20022;-69
2022/07/08 10:14:13;;;;;;;8.05;1.80;;;19.90;99.90;;;;;;5032981;28;20022;-69
2022/07/08 10:16:39;;;;;;;9.25;2.08;;;19.70;99.90;;;;;;5033293;28;20117;-69
2022/07/08 10:19:14;;;;;;;9.50;2.20;;;20.10;99.90;;;;;;5033623;28;20024;-70
2022/07/08 10:21:44;;;;;;;10.43;2.35;;;20.40;99.90;;;;;;5033561;28;20022;-69
2022/07/08 10:24:20;;;;;;;13.48;1.60;;;20.20;99.90;;;;;;5033449;28;20029;-68
2022/07/08 10:26:46;;;;;;;10.30;1.63;;;19.60;99.90;;;;;;5033717;28;20021;-68
2022/07/08 10:29:11;;;;;;;8.95;1.92;;;19.80;99.90;;;;;;5033318;28;20034;-68
2022/07/08 10:31:46;;;;;;;6.35;1.70;;;20.30;99.90;;;;;;5033221;28;20029;-68
2022/07/08 10:34:28;;;;;;;6.82;1.70;;;20.30;99.90;;;;;;5033411;28;20024;-68
2022/07/08 10:36:54;;;;;;;9.95;1.88;;;20.00;99.90;;;;;;5033454;28;20036;-68
2022/07/08 10:39:31;;;;;;;12.57;2.00;;;20.20;99.90;;;;;;5033148;28;20088;-68
2022/07/08 10:42:03;;;;;;;12.43;2.40;;;20.50;99.90;;;;;;5033652;28;20519;-68
2022/07/08 10:44:57;;;;;;;14.77;2.22;;;20.60;99.90;;;;;;5033294;28;20482;-68
2022/07/08 10:47:28;;;;;;;16.73;2.72;;;20.10;99.90;;;;;;5020447;28;20038;-68
2022/07/08 10:50:04;;;;;;;12.45;2.22;;;19.60;99.90;;;;;;5033382;28;20127;-68
2022/07/08 10:52:40;;;;;;;10.18;2.38;;;19.80;99.90;;;;;;5033360;28;20521;-68
2022/07/08 10:55:15;;;;;;;13.50;2.08;;;20.10;99.90;;;;;;5033720;28;20026;-68
2022/07/08 10:57:54;;;;;;;6.88;1.88;;;20.20;99.90;;;;;;5033133;28;20026;-68
2022/07/08 11:00:20;;;;;;;13.77;3.20;;;20.10;99.90;;;;;;5032895;28;20044;-68
2022/07/08 11:02:48;;;;;;;9.60;2.55;;;20.10;99.90;;;;;;5033015;28;20022;-68
2022/07/08 11:05:32;;;;;;;13.40;2.22;;;20.10;99.90;;;;;;5033175;28;20022;-68
2022/07/08 11:08:34;;;;;;;17.73;2.88;;;20.40;99.90;;;;;;5033068;28;20086;-68
2022/07/08 11:11:03;;;;;;;12.88;2.25;;;20.50;99.90;;;;;;4972405;28;20467;-68
2022/07/08 11:13:28;;;;;;;10.88;2.58;;;20.70;99.90;;;;;;5022035;28;20044;-68
2022/07/08 11:15:54;;;;;;;11.35;3.00;;;21.00;99.90;;;;;;5034159;28;20030;-68
2022/07/08 11:18:24;;;;;;;8.05;2.08;;;21.00;99.90;;;;;;5036309;28;20065;-68
2022/07/08 11:20:57;;;;;;;7.78;1.90;;;20.70;99.90;;;;;;5036560;28;20485;-68
2022/07/08 11:23:23;;;;;;;15.87;2.93;;;20.30;99.90;;;;;;5036544;28;20104;-70
2022/07/08 11:25:48;;;;;;;10.65;2.25;;;19.80;99.90;;;;;;5036418;28;20064;-69
2022/07/08 11:28:21;;;;;;;12.10;3.08;;;20.00;99.90;;;;;;5036803;28;20032;-69
2022/07/08 11:30:46;;;;;;;12.60;2.60;;;20.30;99.90;;;;;;5037605;28;20104;-69
2022/07/08 11:33:12;;;;;;;11.65;3.03;;;20.70;99.90;;;;;;5036668;28;20065;-69
2022/07/08 11:35:41;;;;;;;8.13;2.15;;;21.20;99.90;;;;;;5035962;28;20029;-69
2022/07/08 11:38:07;;;;;;;15.32;2.70;;;21.30;99.90;;;;;;5035923;28;20033;-69
2022/07/08 11:40:42;;;;;;;9.70;2.28;;;20.80;99.90;;;;;;5035989;28;20088;-69
2022/07/08 11:43:14;;;;;;;11.65;2.05;;;20.70;99.90;;;;;;5036105;28;20026;-69
2022/07/08 11:45:40;;;;;;;12.85;2.70;;;20.10;99.90;;;;;;5035974;28;20021;-69
2022/07/08 11:48:06;;;;;;;14.02;2.30;;;20.10;99.90;;;;;;5036006;28;20064;-69
2022/07/08 11:50:31;;;;;;;8.00;2.30;;;19.80;99.90;;;;;;5035673;28;20072;-69
2022/07/08 11:52:57;;;;;;;13.23;2.00;;;20.00;99.90;;;;;;5032544;28;20037;-69
2022/07/08 11:55:22;;;;;;;10.75;2.50;;;20.00;99.90;;;;;;5018021;28;20022;-69
2022/07/08 11:57:48;;;;;;;6.97;2.30;;;19.50;99.90;;;;;;5035417;28;20108;-69
2022/07/08 12:00:14;;;;;;;19.67;3.03;;;19.60;99.90;;;;;;5035358;28;20052;-69
2022/07/08 12:02:40;;;;;;;13.88;3.60;;;19.90;99.90;;;;;;5035256;28;20033;-69
2022/07/08 12:05:10;;;;;;;13.55;2.05;;;19.90;99.90;;;;;;5035542;28;20024;-69
2022/07/08 12:07:37;;;;;;;13.00;2.50;;;19.80;99.90;;;;;;5035405;28;20466;-69
2022/07/08 12:10:05;;;;;;;16.98;3.67;;;19.80;99.90;;;;;;5035348;28;20049;-69
2022/07/08 12:12:32;;;;;;;14.50;2.80;;;20.30;99.90;;;;;;5035458;28;20469;-69
2022/07/08 12:15:14;;;;;;;11.88;2.28;;;20.80;99.90;;;;;;5035369;28;20481;-69
2022/07/08 12:17:39;;;;;;;9.40;2.08;;;20.80;99.90;;;;;;5035286;28;20029;-69
2022/07/08 12:20:05;;;;;;;11.82;2.42;;;20.70;99.90;;;;;;5035177;28;20037;-69
2022/07/08 12:22:48;;;;;;;13.45;2.42;;;20.10;99.90;;;;;;5035151;28;20018;-69
2022/07/08 12:25:16;;;;;;;11.80;2.17;;;19.90;99.90;;;;;;5035227;28;20382;-69
2022/07/08 12:27:43;;;;;;;8.70;2.28;;;19.40;99.90;;;;;;5034470;28;20028;-69
2022/07/08 12:30:09;;;;;;;10.25;2.28;;;19.30;99.90;;;;;;5034971;28;20017;-69
2022/07/08 12:32:42;;;;;;;9.02;2.00;;;19.30;99.90;;;;;;5035054;28;20026;-69
2022/07/08 12:35:11;;;;;;;10.93;2.40;;;19.50;99.90;;;;;;5035305;28;20030;-69
2022/07/08 12:37:37;;;;;;;7.88;1.75;;;19.70;99.90;;;;;;5034879;28;20025;-69
2022/07/08 12:40:17;;;;;;;6.25;2.05;;;20.30;99.90;;;;;;5034874;28;20021;-69
2022/07/08 12:42:43;;;;;;;10.25;1.63;;;20.30;99.90;;;;;;5035190;28;20033;-69